Mannville, Canada
Current Conditions -  °F | °C
As of 5:00 AM on Thursday 18 Dec 2014 (Local Time) from CYLL Reporting Station
Haze Haze  
Wind Chill: 18°   Ceiling: 300
Heat Index: 18°   Visibility: 3mi
Dew Point: 16°   Wind: 2mph
Humidity: 93%   Direction: 260°W
Pressure: 29.84"   Gusts: NA
Location:  53.33°N, 111.17°W
Report Text: CYLL 181200Z AUTO 26002KT 3SM BR OVC003 M08/M09 A2984 RMK SLP149
Loading
Personal Weather Stations






























Interactive Weather Map New forecast layout! Learn more

10-Day Weather Forecast

Advertisements
Track Severe Weather on mobile